Time;durP1;ratioP1;P1;durP2;ratioP2;P2;SDS_P1;SDS_P2;PMS_P1;PMS_P2;Temp;Humidity;BMP_temperature;BMP_pressure;BME280_temperature;BME280_humidity;BME280_pressure;Samples;Min_cycle;Max_cycle;Signal;HPM_P1;HPM_P2
2023/11/10 00:02:02;;;;;;;1.60;1.50;;;6.80;99.90;;;;;;4976406;28;20786;-60
2023/11/10 00:04:29;;;;;;;3.50;2.20;;;6.80;99.90;;;;;;4971963;28;20204;-60
2023/11/10 00:06:57;;;;;;;2.43;1.40;;;6.70;99.90;;;;;;4966854;28;20202;-60
2023/11/10 00:09:24;;;;;;;1.60;1.50;;;6.70;99.90;;;;;;4967138;28;20290;-60
2023/11/10 00:11:51;;;;;;;3.63;1.37;;;6.70;99.90;;;;;;4953707;29;20271;-60
2023/11/10 00:14:18;;;;;;;2.37;1.40;;;6.70;99.90;;;;;;4960900;28;20205;-60
2023/11/10 00:16:46;;;;;;;1.40;1.30;;;6.70;99.90;;;;;;4960367;28;20238;-59
2023/11/10 00:19:14;;;;;;;1.87;1.77;;;6.70;99.90;;;;;;4971725;28;20295;-60
2023/11/10 00:21:41;;;;;;;2.83;2.40;;;6.80;99.90;;;;;;4973478;28;20296;-60
2023/11/10 00:24:08;;;;;;;2.70;2.50;;;6.80;99.90;;;;;;4976363;28;20621;-60
2023/11/10 00:26:37;;;;;;;2.47;2.20;;;6.90;99.90;;;;;;4968887;28;20294;-60
2023/11/10 00:29:04;;;;;;;2.00;1.80;;;6.90;99.90;;;;;;4972466;28;20206;-60
2023/11/10 00:31:31;;;;;;;2.37;1.87;;;6.90;99.90;;;;;;4974471;28;20767;-60
2023/11/10 00:33:59;;;;;;;2.13;2.03;;;7.10;99.90;;;;;;4976502;28;20207;-60
2023/11/10 00:36:29;;;;;;;2.83;2.60;;;7.10;99.90;;;;;;4976452;28;20206;-59
2023/11/10 00:38:56;;;;;;;2.63;2.47;;;6.90;99.90;;;;;;4976772;28;20255;-59
2023/11/10 00:41:27;;;;;;;3.30;3.00;;;6.70;99.90;;;;;;4975443;28;20254;-60
2023/11/10 00:43:54;;;;;;;3.37;3.17;;;6.60;99.90;;;;;;4973796;28;20247;-60
2023/11/10 00:46:21;;;;;;;3.87;2.37;;;6.50;99.90;;;;;;4975014;28;20784;-60
2023/11/10 00:48:48;;;;;;;5.73;3.60;;;6.40;99.90;;;;;;4968114;28;20201;-59
2023/11/10 00:51:16;;;;;;;2.50;2.40;;;6.40;99.90;;;;;;4978244;28;20300;-59
2023/11/10 00:53:43;;;;;;;2.27;2.10;;;6.30;99.90;;;;;;4968066;28;20253;-60
2023/11/10 00:56:10;;;;;;;1.83;1.63;;;6.20;99.90;;;;;;4971894;28;20206;-60
2023/11/10 00:58:37;;;;;;;2.03;1.90;;;6.20;99.90;;;;;;4974030;28;20231;-60
2023/11/10 01:01:04;;;;;;;2.60;2.03;;;6.20;99.90;;;;;;4975281;28;20245;-60
2023/11/10 01:03:31;;;;;;;2.30;2.20;;;6.20;99.90;;;;;;4976281;28;20246;-60
2023/11/10 01:05:59;;;;;;;2.23;2.03;;;6.20;99.90;;;;;;4970230;28;20282;-60
2023/11/10 01:08:27;;;;;;;3.07;2.30;;;6.30;99.90;;;;;;4969932;28;20213;-60
2023/11/10 01:10:54;;;;;;;1.50;1.40;;;6.40;99.90;;;;;;4959861;28;20258;-60
2023/11/10 01:13:21;;;;;;;1.97;1.80;;;6.40;99.90;;;;;;4975747;28;20206;-60
2023/11/10 01:15:48;;;;;;;2.50;2.30;;;6.50;99.90;;;;;;4975501;28;20214;-60
2023/11/10 01:18:15;;;;;;;1.80;1.70;;;6.50;99.90;;;;;;4975301;28;20666;-60
2023/11/10 01:20:42;;;;;;;5.70;3.87;;;6.50;99.90;;;;;;4975707;28;20205;-59
2023/11/10 01:23:09;;;;;;;7.53;6.87;;;6.70;99.90;;;;;;4955563;28;20234;-60
2023/11/10 01:25:37;;;;;;;7.07;6.47;;;6.80;99.90;;;;;;4962990;28;20210;-60
2023/11/10 01:28:04;;;;;;;4.33;4.03;;;7.00;99.90;;;;;;4974205;28;20223;-60
2023/11/10 01:30:31;;;;;;;5.03;4.53;;;7.00;99.90;;;;;;4975093;28;20357;-59
2023/11/10 01:32:58;;;;;;;5.13;4.73;;;7.00;99.90;;;;;;4975405;28;20260;-60
2023/11/10 01:35:25;;;;;;;4.73;4.33;;;6.90;99.90;;;;;;4961343;28;20207;-60
2023/11/10 01:37:52;;;;;;;8.30;7.40;;;6.80;99.90;;;;;;4957904;28;20599;-60
2023/11/10 01:40:20;;;;;;;8.63;7.80;;;7.00;99.90;;;;;;4974302;28;20260;-59
2023/11/10 01:42:48;;;;;;;7.27;6.47;;;7.10;99.90;;;;;;4974868;28;20225;-59
2023/11/10 01:45:15;;;;;;;6.00;5.60;;;7.10;99.90;;;;;;4973797;28;20207;-59
2023/11/10 01:47:45;;;;;;;5.10;4.70;;;7.10;99.90;;;;;;4969504;28;20297;-60
2023/11/10 01:50:13;;;;;;;5.97;5.23;;;7.10;99.90;;;;;;4975350;28;20208;-60
2023/11/10 01:52:41;;;;;;;6.13;5.53;;;7.10;99.90;;;;;;4977298;28;20245;-60
2023/11/10 01:55:11;;;;;;;7.83;7.13;;;7.00;99.90;;;;;;4966882;28;20565;-59
2023/11/10 01:57:38;;;;;;;6.07;5.43;;;6.90;99.90;;;;;;4974724;28;20207;-60
2023/11/10 02:00:08;;;;;;;11.43;6.93;;;6.90;99.90;;;;;;4955726;28;20211;-59
2023/11/10 02:02:35;;;;;;;7.87;7.03;;;6.80;99.90;;;;;;4955707;29;20227;-60
2023/11/10 02:05:02;;;;;;;8.97;8.10;;;6.80;99.90;;;;;;4960600;28;20238;-59
2023/11/10 02:07:29;;;;;;;7.47;6.77;;;6.70;99.90;;;;;;4968977;28;20269;-59
2023/11/10 02:09:56;;;;;;;7.73;7.03;;;6.70;99.90;;;;;;4974607;28;20794;-59
2023/11/10 02:12:23;;;;;;;7.33;6.73;;;6.80;99.90;;;;;;4961295;28;20262;-60
2023/11/10 02:14:50;;;;;;;7.60;6.90;;;6.90;99.90;;;;;;4954996;29;20260;-60
2023/11/10 02:17:18;;;;;;;6.57;5.97;;;6.80;99.90;;;;;;4955287;28;20218;-60
2023/11/10 02:19:45;;;;;;;6.60;6.00;;;6.80;99.90;;;;;;4971799;28;20234;-60
2023/11/10 02:22:12;;;;;;;7.40;6.57;;;6.70;99.90;;;;;;4973288;28;20253;-59
2023/11/10 02:24:41;;;;;;;7.17;6.57;;;6.60;99.90;;;;;;4973924;28;20234;-60
2023/11/10 02:27:09;;;;;;;6.50;5.90;;;6.70;99.90;;;;;;4974443;28;20249;-60
2023/11/10 02:29:40;;;;;;;5.37;4.97;;;6.70;99.90;;;;;;4974523;28;20233;-60
2023/11/10 02:32:07;;;;;;;5.83;5.27;;;6.70;99.90;;;;;;4974879;28;20234;-59
2023/11/10 02:34:34;;;;;;;7.17;6.47;;;6.60;99.90;;;;;;4973358;28;20202;-59
2023/11/10 02:37:02;;;;;;;7.17;6.37;;;6.70;99.90;;;;;;4971245;28;20297;-59
2023/11/10 02:39:29;;;;;;;8.53;7.73;;;6.70;99.90;;;;;;4955724;28;20293;-59
2023/11/10 02:41:56;;;;;;;8.93;8.03;;;6.70;99.90;;;;;;4979591;28;20253;-60
2023/11/10 02:44:24;;;;;;;9.13;8.23;;;6.70;99.90;;;;;;4979813;28;20334;-60
2023/11/10 02:46:51;;;;;;;8.73;7.83;;;6.60;99.90;;;;;;4969742;28;20280;-59
2023/11/10 02:49:20;;;;;;;7.83;7.07;;;6.60;99.90;;;;;;4969043;28;20195;-59
2023/11/10 02:51:47;;;;;;;7.23;6.70;;;6.50;99.90;;;;;;4954663;29;20341;-60
2023/11/10 02:54:14;;;;;;;7.30;6.67;;;6.50;99.90;;;;;;4954773;29;20211;-60
2023/11/10 02:56:41;;;;;;;7.13;6.43;;;6.40;99.90;;;;;;4969081;28;20212;-59
2023/11/10 02:59:08;;;;;;;6.90;6.30;;;6.40;99.90;;;;;;4965766;28;20226;-60
2023/11/10 03:01:37;;;;;;;9.07;6.63;;;6.30;99.90;;;;;;4973739;28;20218;-60
2023/11/10 03:04:04;;;;;;;8.13;7.33;;;6.20;99.90;;;;;;4972726;28;20245;-59
2023/11/10 03:06:31;;;;;;;8.63;7.77;;;6.20;99.90;;;;;;4973095;28;20686;-60
2023/11/10 03:08:58;;;;;;;8.10;6.70;;;6.20;99.90;;;;;;4972774;28;20234;-60
2023/11/10 03:11:28;;;;;;;8.50;7.77;;;6.20;99.90;;;;;;4967860;28;20223;-60
2023/11/10 03:13:56;;;;;;;8.23;7.33;;;6.20;99.90;;;;;;4954362;29;20571;-60
2023/11/10 03:16:23;;;;;;;7.83;7.07;;;6.10;99.90;;;;;;4967937;28;20205;-59
2023/11/10 03:18:52;;;;;;;9.67;8.77;;;6.10;99.90;;;;;;4956852;28;20234;-60
2023/11/10 03:21:19;;;;;;;7.93;6.90;;;6.20;99.90;;;;;;4963540;28;20221;-59
2023/11/10 03:23:46;;;;;;;9.67;8.23;;;6.30;99.90;;;;;;4965117;28;20290;-60
2023/11/10 03:26:13;;;;;;;8.73;7.37;;;6.30;99.90;;;;;;4966059;28;20752;-60
2023/11/10 03:28:40;;;;;;;8.83;7.93;;;6.20;99.90;;;;;;4956945;28;20203;-60
2023/11/10 03:31:08;;;;;;;8.10;7.40;;;6.20;99.90;;;;;;4953709;29;20627;-60
2023/11/10 03:33:35;;;;;;;8.33;7.57;;;6.10;99.90;;;;;;4958434;28;20229;-59
2023/11/10 03:36:04;;;;;;;11.37;8.20;;;6.10;99.90;;;;;;4978541;28;20236;-60
2023/11/10 03:38:31;;;;;;;8.27;7.40;;;6.10;99.90;;;;;;4958899;28;20228;-60
2023/11/10 03:40:59;;;;;;;8.90;8.00;;;6.10;99.90;;;;;;4968767;28;20300;-60
2023/11/10 03:43:26;;;;;;;7.83;7.10;;;6.00;99.90;;;;;;4959469;28;20714;-60
2023/11/10 03:45:55;;;;;;;8.93;6.83;;;6.10;99.90;;;;;;4966294;28;20583;-59
2023/11/10 03:48:22;;;;;;;8.63;7.70;;;6.00;99.90;;;;;;4972285;28;20202;-59
2023/11/10 03:50:49;;;;;;;9.70;8.73;;;6.10;99.90;;;;;;4973076;28;20215;-60
2023/11/10 03:53:18;;;;;;;10.03;8.50;;;6.10;99.90;;;;;;4971485;28;20304;-60
2023/11/10 03:55:45;;;;;;;9.90;8.07;;;6.20;99.90;;;;;;4978667;28;20237;-59
2023/11/10 03:58:11;;;;;;;9.93;7.63;;;6.30;99.90;;;;;;4964850;28;20242;-59
2023/11/10 04:00:38;;;;;;;8.03;7.23;;;6.20;99.90;;;;;;4972998;28;20345;-59
2023/11/10 04:03:05;;;;;;;10.83;8.03;;;6.20;99.90;;;;;;4953969;28;20247;-60
2023/11/10 04:05:32;;;;;;;7.97;7.20;;;6.20;99.90;;;;;;4964226;28;20628;-60
2023/11/10 04:07:59;;;;;;;8.83;8.03;;;6.20;99.90;;;;;;4971990;28;20230;-60
2023/11/10 04:10:28;;;;;;;8.47;7.67;;;6.20;99.90;;;;;;4975882;28;20210;-60
2023/11/10 04:12:56;;;;;;;7.80;7.10;;;6.10;99.90;;;;;;4972235;28;20320;-59
2023/11/10 04:15:23;;;;;;;7.40;6.67;;;6.10;99.90;;;;;;4971507;28;20217;-60
2023/11/10 04:17:50;;;;;;;7.93;6.93;;;6.10;99.90;;;;;;4972437;28;20237;-60
2023/11/10 04:20:17;;;;;;;7.37;6.70;;;6.10;99.90;;;;;;4977364;28;20276;-60
2023/11/10 04:22:43;;;;;;;8.67;6.63;;;6.10;99.90;;;;;;4964524;28;20571;-60
2023/11/10 04:25:10;;;;;;;8.30;7.00;;;6.10;99.90;;;;;;4953053;29;20241;-59
2023/11/10 04:27:41;;;;;;;7.03;6.23;;;6.10;99.90;;;;;;4953535;29;20246;-60
2023/11/10 04:30:09;;;;;;;7.90;7.20;;;6.10;99.90;;;;;;4971897;28;20204;-59
2023/11/10 04:32:36;;;;;;;7.77;6.97;;;6.00;99.90;;;;;;4972222;28;20221;-60
2023/11/10 04:35:03;;;;;;;7.57;6.30;;;6.00;99.90;;;;;;4972323;28;20247;-60
2023/11/10 04:37:31;;;;;;;8.00;7.10;;;6.10;99.90;;;;;;4972564;28;20287;-60
2023/11/10 04:39:58;;;;;;;12.83;7.87;;;6.10;99.90;;;;;;4970831;28;20201;-60
2023/11/10 04:42:25;;;;;;;7.47;6.70;;;6.10;99.90;;;;;;4972193;28;20250;-59
2023/11/10 04:44:53;;;;;;;7.97;6.50;;;6.10;99.90;;;;;;4955193;28;20714;-59
2023/11/10 04:47:20;;;;;;;8.93;8.13;;;6.10;99.90;;;;;;4953311;29;20239;-60
2023/11/10 04:49:47;;;;;;;11.00;6.93;;;6.10;99.90;;;;;;4964418;28;20674;-59
2023/11/10 04:52:15;;;;;;;8.37;7.73;;;6.30;99.90;;;;;;4972174;28;20253;-59
2023/11/10 04:54:45;;;;;;;9.47;7.20;;;6.30;99.90;;;;;;4967766;28;20276;-60
2023/11/10 04:57:12;;;;;;;7.33;6.63;;;6.30;99.90;;;;;;4961384;28;20199;-60
2023/11/10 04:59:39;;;;;;;6.30;5.80;;;6.30;99.90;;;;;;4965083;28;20244;-60
2023/11/10 05:02:09;;;;;;;7.40;6.60;;;6.30;99.90;;;;;;4974648;28;20222;-60
2023/11/10 05:04:39;;;;;;;6.57;5.97;;;6.30;99.90;;;;;;4974509;28;20200;-60
2023/11/10 05:07:07;;;;;;;6.00;5.40;;;6.20;99.90;;;;;;4957360;28;20568;-60
2023/11/10 05:09:34;;;;;;;5.53;5.03;;;6.20;99.90;;;;;;4966093;28;20626;-60
2023/11/10 05:12:01;;;;;;;7.13;5.87;;;6.30;99.90;;;;;;4965643;28;20252;-59
2023/11/10 05:14:28;;;;;;;5.70;5.30;;;6.30;99.90;;;;;;4977511;28;20640;-60
2023/11/10 05:16:55;;;;;;;5.90;5.50;;;6.30;99.90;;;;;;4975772;28;20203;-60
2023/11/10 05:19:23;;;;;;;6.73;6.03;;;6.30;99.90;;;;;;4974349;28;20234;-60
2023/11/10 05:21:50;;;;;;;7.20;5.77;;;6.30;99.90;;;;;;4975299;28;20294;-59
2023/11/10 05:24:19;;;;;;;8.13;6.67;;;6.30;99.90;;;;;;4975233;28;20695;-60
2023/11/10 05:26:46;;;;;;;5.77;5.27;;;6.40;99.90;;;;;;4977719;28;20217;-59
2023/11/10 05:29:14;;;;;;;6.10;5.20;;;6.50;99.90;;;;;;4975455;28;20212;-59
2023/11/10 05:31:44;;;;;;;5.83;5.13;;;6.60;99.90;;;;;;4974217;28;20230;-59
2023/11/10 05:34:11;;;;;;;4.27;3.97;;;6.60;99.90;;;;;;4975500;28;20319;-60
2023/11/10 05:36:40;;;;;;;4.57;4.17;;;6.50;99.90;;;;;;4975387;28;20838;-60
2023/11/10 05:39:07;;;;;;;6.13;4.23;;;6.50;99.90;;;;;;4974245;28;20266;-60
2023/11/10 05:41:34;;;;;;;5.70;5.20;;;6.50;99.90;;;;;;4975092;28;20226;-60
2023/11/10 05:44:02;;;;;;;4.63;4.20;;;6.40;99.90;;;;;;4975004;28;20748;-60
2023/11/10 05:46:29;;;;;;;4.07;3.77;;;6.40;99.90;;;;;;4976339;28;20206;-60
2023/11/10 05:48:56;;;;;;;4.67;4.27;;;6.40;99.90;;;;;;4975093;28;20216;-60
2023/11/10 05:51:23;;;;;;;5.10;4.70;;;6.40;99.90;;;;;;4974812;28;20257;-60
2023/11/10 05:53:51;;;;;;;4.93;4.47;;;6.40;99.90;;;;;;4974656;28;20256;-60
2023/11/10 05:56:18;;;;;;;4.87;4.47;;;6.40;99.90;;;;;;4976254;28;20625;-60
2023/11/10 05:58:45;;;;;;;3.80;3.60;;;6.30;99.90;;;;;;4974924;28;20208;-60
2023/11/10 06:01:12;;;;;;;4.63;4.10;;;6.30;99.90;;;;;;4966765;28;20249;-60
2023/11/10 06:03:39;;;;;;;4.77;4.37;;;6.30;99.90;;;;;;4974614;28;20678;-61
2023/11/10 06:06:07;;;;;;;7.50;4.90;;;6.30;99.90;;;;;;4974780;28;20202;-60
2023/11/10 06:08:36;;;;;;;8.20;5.83;;;6.30;99.90;;;;;;4974376;28;20747;-60
2023/11/10 06:11:04;;;;;;;8.20;6.90;;;6.30;99.90;;;;;;4973622;28;20773;-60
2023/11/10 06:13:33;;;;;;;8.23;5.93;;;6.40;99.90;;;;;;4974336;28;20278;-60
2023/11/10 06:16:00;;;;;;;5.77;5.27;;;6.40;99.90;;;;;;4973976;28;20256;-60
2023/11/10 06:18:27;;;;;;;8.60;5.50;;;6.40;99.90;;;;;;4982962;28;20289;-60
2023/11/10 06:20:54;;;;;;;5.70;4.60;;;6.50;99.90;;;;;;4971967;28;20210;-60
2023/11/10 06:23:21;;;;;;;5.80;5.23;;;6.50;99.90;;;;;;4974399;28;20222;-60
2023/11/10 06:25:48;;;;;;;6.20;4.93;;;6.60;99.90;;;;;;4973714;28;20689;-60
2023/11/10 06:28:17;;;;;;;7.17;5.80;;;6.70;99.90;;;;;;4976600;28;20237;-60
2023/11/10 06:30:44;;;;;;;6.37;5.70;;;6.70;99.90;;;;;;4973718;28;20206;-60
2023/11/10 06:33:11;;;;;;;9.93;6.80;;;6.80;99.90;;;;;;4973867;28;20324;-59
2023/11/10 06:35:37;;;;;;;6.63;5.67;;;6.80;99.90;;;;;;4973845;28;20242;-60
2023/11/10 06:38:04;;;;;;;7.73;6.93;;;6.80;99.90;;;;;;4972098;28;20630;-60
2023/11/10 06:40:31;;;;;;;6.33;5.07;;;6.70;99.90;;;;;;4973929;28;20238;-61
2023/11/10 06:42:59;;;;;;;7.97;6.87;;;6.70;99.90;;;;;;4973767;28;20254;-60
2023/11/10 06:45:27;;;;;;;7.87;5.80;;;6.60;99.90;;;;;;4973406;28;20206;-60
2023/11/10 06:47:54;;;;;;;15.30;10.13;;;6.60;99.90;;;;;;4975452;28;20218;-60
2023/11/10 06:50:21;;;;;;;12.13;7.43;;;6.60;99.90;;;;;;4973864;28;20225;-60
2023/11/10 06:52:48;;;;;;;6.87;6.17;;;6.60;99.90;;;;;;4973527;28;20266;-60
2023/11/10 06:55:16;;;;;;;5.43;4.67;;;6.60;99.90;;;;;;4973363;28;20233;-60
2023/11/10 06:57:44;;;;;;;5.03;4.53;;;6.60;99.90;;;;;;4975170;28;20211;-60
2023/11/10 07:00:12;;;;;;;6.50;4.30;;;6.60;99.90;;;;;;4973562;28;20198;-60
2023/11/10 07:02:40;;;;;;;5.60;5.10;;;6.70;99.90;;;;;;4973598;28;20261;-59
2023/11/10 07:05:09;;;;;;;4.20;3.80;;;6.70;99.90;;;;;;4973169;28;20269;-60
2023/11/10 07:07:36;;;;;;;5.17;4.77;;;6.70;99.90;;;;;;4973876;28;20293;-60
2023/11/10 07:10:04;;;;;;;6.57;4.50;;;6.70;99.90;;;;;;4971182;28;20218;-59
2023/11/10 07:12:31;;;;;;;5.53;4.63;;;6.70;99.90;;;;;;4969082;28;20225;-60
2023/11/10 07:14:58;;;;;;;4.87;4.37;;;6.80;99.90;;;;;;4972077;28;20249;-60
2023/11/10 07:17:26;;;;;;;6.93;5.83;;;6.70;99.90;;;;;;4972442;28;20221;-60
2023/11/10 07:19:55;;;;;;;7.70;6.13;;;6.70;99.90;;;;;;4970845;28;20207;-60
2023/11/10 07:22:22;;;;;;;6.70;4.73;;;6.70;99.90;;;;;;4973058;28;20232;-60
2023/11/10 07:24:49;;;;;;;4.57;3.97;;;6.70;99.90;;;;;;4972722;28;20622;-59
2023/11/10 07:27:15;;;;;;;5.50;4.67;;;6.80;99.90;;;;;;4972072;28;20224;-60
2023/11/10 07:29:42;;;;;;;3.77;3.47;;;6.70;99.90;;;;;;4972458;28;20209;-60
2023/11/10 07:32:10;;;;;;;3.70;3.33;;;6.70;99.90;;;;;;4965456;28;20654;-60
2023/11/10 07:34:36;;;;;;;4.10;3.70;;;6.90;99.90;;;;;;4972577;28;20231;-60
2023/11/10 07:37:05;;;;;;;4.07;3.10;;;7.00;99.90;;;;;;4972047;28;21011;-60
2023/11/10 07:39:32;;;;;;;4.10;3.37;;;7.10;99.90;;;;;;4972205;28;20209;-60
2023/11/10 07:41:59;;;;;;;4.77;3.90;;;7.10;99.90;;;;;;4970615;28;20230;-62
2023/11/10 07:44:26;;;;;;;4.40;4.03;;;7.10;99.90;;;;;;4973662;28;20666;-60
2023/11/10 07:46:53;;;;;;;4.97;4.17;;;7.10;99.90;;;;;;4976623;28;20239;-60
2023/11/10 07:49:20;;;;;;;4.40;4.07;;;7.10;99.90;;;;;;4972720;28;20288;-61
2023/11/10 07:51:47;;;;;;;5.10;4.10;;;7.10;99.90;;;;;;4972847;28;20269;-61
2023/11/10 07:54:17;;;;;;;6.67;4.03;;;7.10;99.90;;;;;;4972025;28;20300;-60
2023/11/10 07:56:44;;;;;;;5.20;4.70;;;7.10;99.90;;;;;;4972229;28;20206;-60
2023/11/10 07:59:11;;;;;;;7.90;5.53;;;7.10;99.90;;;;;;4980210;28;20677;-60
2023/11/10 08:01:41;;;;;;;9.83;8.03;;;7.10;99.90;;;;;;4973313;28;20318;-60
2023/11/10 08:04:08;;;;;;;10.37;6.07;;;7.10;99.90;;;;;;4972327;28;20295;-60
2023/11/10 08:06:36;;;;;;;6.10;5.50;;;7.10;99.90;;;;;;4972311;28;20290;-60
2023/11/10 08:09:04;;;;;;;10.47;6.47;;;7.10;99.90;;;;;;4974205;28;20238;-60
2023/11/10 08:11:33;;;;;;;6.80;6.20;;;7.20;99.90;;;;;;4972551;28;20731;-60
2023/11/10 08:14:00;;;;;;;5.50;4.93;;;7.20;99.90;;;;;;4972554;28;20281;-60
2023/11/10 08:16:30;;;;;;;6.13;5.53;;;7.30;99.90;;;;;;4972233;28;20210;-60
2023/11/10 08:18:57;;;;;;;2.90;2.70;;;7.30;99.90;;;;;;4978830;28;20265;-60
2023/11/10 08:21:25;;;;;;;4.60;4.13;;;7.40;99.90;;;;;;4971642;28;20301;-60
2023/11/10 08:23:52;;;;;;;3.37;3.07;;;7.30;99.90;;;;;;4971560;28;20581;-59
2023/11/10 08:26:19;;;;;;;3.00;2.90;;;7.40;99.90;;;;;;4972195;28;20234;-60
2023/11/10 08:28:48;;;;;;;3.27;2.97;;;7.50;99.90;;;;;;4978138;28;20238;-60
2023/11/10 08:31:15;;;;;;;5.10;4.03;;;7.50;99.90;;;;;;4964393;28;20225;-60
2023/11/10 08:33:42;;;;;;;3.00;2.70;;;7.50;99.90;;;;;;4972728;28;20335;-60
2023/11/10 08:36:10;;;;;;;2.47;2.23;;;7.40;99.90;;;;;;4975083;28;20242;-60
2023/11/10 08:38:36;;;;;;;2.30;2.20;;;7.40;99.90;;;;;;4980891;28;20217;-61
2023/11/10 08:41:04;;;;;;;3.03;2.83;;;7.50;99.90;;;;;;4966070;28;20298;-60
2023/11/10 08:43:32;;;;;;;2.87;2.67;;;7.50;99.90;;;;;;4975996;28;20684;-60
2023/11/10 08:46:01;;;;;;;3.27;2.53;;;7.60;99.90;;;;;;4975927;28;20208;-62
2023/11/10 08:48:28;;;;;;;4.10;3.60;;;7.70;99.90;;;;;;4981635;28;20314;-60
2023/11/10 08:50:55;;;;;;;2.77;2.67;;;7.80;99.90;;;;;;4976157;28;20210;-60
2023/11/10 08:53:22;;;;;;;3.30;2.53;;;7.80;99.90;;;;;;4976909;28;20297;-60
2023/11/10 08:55:49;;;;;;;2.93;2.63;;;7.80;99.90;;;;;;4975572;28;20696;-60
2023/11/10 08:58:18;;;;;;;2.63;2.43;;;7.80;99.90;;;;;;4981038;28;20266;-60
2023/11/10 09:00:46;;;;;;;2.70;2.50;;;8.00;99.90;;;;;;4975531;28;20301;-60
2023/11/10 09:03:14;;;;;;;3.93;2.47;;;8.00;99.90;;;;;;4982311;28;20223;-60
2023/11/10 09:05:41;;;;;;;2.20;2.10;;;8.00;99.90;;;;;;4975446;28;20278;-60
2023/11/10 09:08:08;;;;;;;3.20;2.93;;;8.00;99.90;;;;;;4976087;28;20683;-60
2023/11/10 09:10:35;;;;;;;4.47;4.07;;;8.00;99.90;;;;;;4975658;28;20663;-60
2023/11/10 09:13:03;;;;;;;5.70;5.20;;;8.00;99.90;;;;;;4982712;28;20257;-60
2023/11/10 09:15:31;;;;;;;5.10;4.80;;;8.00;99.90;;;;;;4974892;28;20238;-60
2023/11/10 09:17:58;;;;;;;4.23;3.93;;;8.20;99.90;;;;;;4975505;28;20562;-60
2023/11/10 09:20:27;;;;;;;5.77;3.97;;;8.30;99.90;;;;;;4975792;28;20214;-60
2023/11/10 09:22:54;;;;;;;7.97;4.73;;;8.50;99.90;;;;;;4982188;28;20223;-60
2023/11/10 09:25:21;;;;;;;4.57;4.07;;;8.80;99.90;;;;;;4974920;28;20245;-60
2023/11/10 09:27:48;;;;;;;4.60;4.20;;;9.10;99.90;;;;;;4975360;28;20777;-60
2023/11/10 09:30:15;;;;;;;4.13;3.63;;;9.30;99.90;;;;;;4975429;28;20210;-60
2023/11/10 09:32:42;;;;;;;3.80;3.27;;;9.60;99.90;;;;;;4976415;28;20281;-60
2023/11/10 09:35:11;;;;;;;3.40;2.67;;;9.80;99.90;;;;;;4973607;28;20286;-60
2023/11/10 09:37:39;;;;;;;2.90;2.70;;;9.90;99.90;;;;;;4970364;28;20582;-60
2023/11/10 09:40:09;;;;;;;2.50;2.00;;;9.80;99.90;;;;;;4975138;28;20633;-60
2023/11/10 09:42:37;;;;;;;4.37;2.63;;;9.80;99.90;;;;;;4965737;28;20222;-61
2023/11/10 09:45:05;;;;;;;3.73;3.13;;;9.70;99.90;;;;;;4964683;28;20258;-61
2023/11/10 09:47:33;;;;;;;3.10;2.80;;;9.60;99.90;;;;;;4965329;28;20241;-60
2023/11/10 09:50:02;;;;;;;2.63;2.43;;;9.50;99.90;;;;;;4973815;28;20237;-60
2023/11/10 09:52:34;;;;;;;2.70;2.60;;;9.50;99.90;;;;;;4955654;29;20231;-62
2023/11/10 09:55:03;;;;;;;3.13;2.97;;;9.60;99.90;;;;;;4970056;28;20246;-60
2023/11/10 09:57:32;;;;;;;3.60;3.30;;;9.50;99.90;;;;;;4969477;28;20289;-60
2023/11/10 09:59:59;;;;;;;2.77;2.63;;;9.40;99.90;;;;;;4955600;29;20254;-60
2023/11/10 10:02:26;;;;;;;3.80;3.50;;;9.40;99.90;;;;;;4955479;29;20231;-60
2023/11/10 10:04:53;;;;;;;3.73;3.47;;;9.60;99.90;;;;;;4968209;28;20229;-60
2023/11/10 10:07:20;;;;;;;3.57;3.37;;;9.50;99.90;;;;;;4971079;28;20651;-60
2023/11/10 10:09:47;;;;;;;4.17;3.87;;;9.60;99.90;;;;;;4955640;29;20737;-60
2023/11/10 10:12:15;;;;;;;3.13;2.93;;;9.50;99.90;;;;;;4955364;29;20720;-60
2023/11/10 10:14:53;;;;;;;3.83;3.63;;;9.40;99.90;;;;;;4965266;28;20268;-60
2023/11/10 10:17:20;;;;;;;3.87;3.67;;;9.50;99.90;;;;;;4967210;28;20728;-61
2023/11/10 10:19:48;;;;;;;3.50;3.27;;;9.50;99.90;;;;;;4974814;28;20206;-60
2023/11/10 10:22:24;;;;;;;3.90;3.70;;;9.40;99.90;;;;;;4974654;28;20227;-60
2023/11/10 10:24:51;;;;;;;4.63;4.27;;;9.30;99.90;;;;;;4979368;28;20202;-60
2023/11/10 10:27:19;;;;;;;4.40;4.03;;;9.30;99.90;;;;;;4974384;28;20235;-60
2023/11/10 10:29:48;;;;;;;4.30;3.90;;;9.20;99.90;;;;;;4974354;28;20258;-60
2023/11/10 10:32:15;;;;;;;4.27;3.93;;;9.20;99.90;;;;;;4975186;28;20245;-60
2023/11/10 10:34:42;;;;;;;4.80;4.40;;;9.20;99.90;;;;;;4972329;28;20717;-61
2023/11/10 10:37:10;;;;;;;5.67;5.13;;;9.20;99.90;;;;;;4972026;28;20230;-60
2023/11/10 10:39:40;;;;;;;6.23;5.63;;;9.20;99.90;;;;;;4955122;28;20239;-60
2023/11/10 10:42:14;;;;;;;6.53;5.97;;;9.30;99.90;;;;;;4954834;29;20223;-61
2023/11/10 10:44:44;;;;;;;5.30;4.90;;;9.30;99.90;;;;;;4962804;28;20206;-60
2023/11/10 10:47:11;;;;;;;4.50;4.10;;;9.30;99.90;;;;;;4972250;28;20225;-60
2023/11/10 10:49:41;;;;;;;5.70;5.20;;;9.20;99.90;;;;;;4954893;29;20233;-60
2023/11/10 10:52:09;;;;;;;5.20;4.70;;;9.30;99.90;;;;;;4954683;29;20721;-60
2023/11/10 10:54:37;;;;;;;6.07;5.30;;;9.30;99.90;;;;;;4961106;28;20249;-60
2023/11/10 10:57:06;;;;;;;6.07;5.53;;;9.30;99.90;;;;;;4973753;28;20198;-60
2023/11/10 10:59:37;;;;;;;7.07;6.43;;;9.40;99.90;;;;;;4969595;28;20250;-60
2023/11/10 11:02:10;;;;;;;6.10;5.60;;;9.50;99.90;;;;;;4964008;28;20224;-60
2023/11/10 11:04:51;;;;;;;8.60;6.50;;;9.70;99.90;;;;;;4954245;29;20233;-60
2023/11/10 11:07:48;;;;;;;9.27;7.07;;;9.70;99.90;;;;;;4954348;29;20285;-60
2023/11/10 11:10:37;;;;;;;9.73;7.93;;;9.80;99.90;;;;;;4970200;28;20230;-60
2023/11/10 11:13:39;;;;;;;6.13;5.63;;;10.00;99.90;;;;;;4971252;28;20224;-60
2023/11/10 11:16:32;;;;;;;5.53;5.13;;;10.10;99.90;;;;;;4952555;28;20224;-61
2023/11/10 11:19:19;;;;;;;5.83;5.33;;;10.00;99.90;;;;;;4969415;28;20235;-60
2023/11/10 11:21:48;;;;;;;5.97;5.43;;;10.00;99.90;;;;;;4958115;28;20225;-60
2023/11/10 11:24:19;;;;;;;5.13;4.73;;;10.10;99.90;;;;;;4961528;28;20272;-60
2023/11/10 11:26:55;;;;;;;4.67;4.23;;;10.00;99.90;;;;;;4973634;28;20206;-61
2023/11/10 11:29:23;;;;;;;4.50;4.20;;;9.90;99.90;;;;;;4971973;28;20222;-61
2023/11/10 11:31:49;;;;;;;6.57;5.13;;;9.80;99.90;;;;;;4957506;28;20264;-60
2023/11/10 11:34:21;;;;;;;4.97;4.47;;;9.80;99.90;;;;;;4953922;29;20271;-60
2023/11/10 11:36:49;;;;;;;5.17;4.67;;;9.80;99.90;;;;;;4960951;28;20199;-60
2023/11/10 11:39:20;;;;;;;5.23;4.10;;;9.60;99.90;;;;;;4974236;28;20255;-60
2023/11/10 11:41:49;;;;;;;4.27;3.97;;;9.70;99.90;;;;;;4972558;28;20665;-60
2023/11/10 11:44:26;;;;;;;4.60;4.27;;;9.60;99.90;;;;;;4972708;28;20246;-60
2023/11/10 11:46:57;;;;;;;5.03;4.33;;;9.60;99.90;;;;;;4971865;28;20686;-60
2023/11/10 11:49:27;;;;;;;5.00;4.60;;;9.50;99.90;;;;;;4974629;28;20213;-60
2023/11/10 11:51:55;;;;;;;4.53;4.23;;;9.40;99.90;;;;;;4971050;28;20230;-60
2023/11/10 11:54:26;;;;;;;4.27;3.93;;;9.40;99.90;;;;;;4974169;28;20228;-60
2023/11/10 11:56:54;;;;;;;5.03;4.57;;;9.30;99.90;;;;;;4972512;28;20221;-60
2023/11/10 11:59:21;;;;;;;4.87;4.30;;;9.20;99.90;;;;;;4973854;28;20232;-60
2023/11/10 12:01:49;;;;;;;4.17;3.67;;;9.20;99.90;;;;;;4972857;28;20319;-60
2023/11/10 12:04:16;;;;;;;4.63;4.20;;;9.20;99.90;;;;;;4972748;28;20287;-60
2023/11/10 12:06:44;;;;;;;4.77;4.47;;;9.30;99.90;;;;;;4972510;28;20249;-60
2023/11/10 12:09:12;;;;;;;3.47;3.03;;;9.40;99.90;;;;;;4970800;28;20234;-60
2023/11/10 12:11:40;;;;;;;3.40;3.20;;;9.50;99.90;;;;;;4972447;28;20226;-60
2023/11/10 12:14:09;;;;;;;3.97;3.67;;;9.60;99.90;;;;;;4973806;28;20338;-60
2023/11/10 12:16:36;;;;;;;3.80;3.50;;;9.80;99.90;;;;;;4972180;28;20208;-60
2023/11/10 12:19:04;;;;;;;3.63;3.33;;;10.00;99.90;;;;;;4973018;28;20214;-60
2023/11/10 12:21:32;;;;;;;3.67;3.30;;;10.20;99.90;;;;;;4976209;28;20226;-61
2023/11/10 12:24:03;;;;;;;3.37;3.00;;;10.30;99.90;;;;;;4971764;28;20241;-60
2023/11/10 12:26:34;;;;;;;4.00;2.83;;;10.20;99.90;;;;;;4972014;28;20746;-60
2023/11/10 12:29:03;;;;;;;3.90;3.57;;;10.30;99.90;;;;;;4972645;28;20228;-59
2023/11/10 12:31:34;;;;;;;4.57;3.90;;;10.40;99.90;;;;;;4971058;28;20234;-60
2023/11/10 12:34:02;;;;;;;3.40;3.27;;;10.50;99.90;;;;;;4967812;28;20237;-60
2023/11/10 12:36:37;;;;;;;4.13;3.73;;;10.50;99.90;;;;;;4971162;28;20618;-60
2023/11/10 12:39:09;;;;;;;4.10;3.07;;;10.40;99.90;;;;;;4970501;28;20276;-60
2023/11/10 12:41:36;;;;;;;3.50;3.33;;;10.40;99.90;;;;;;4974298;28;20222;-62
2023/11/10 12:44:04;;;;;;;3.83;3.37;;;10.40;99.90;;;;;;4972302;28;20203;-61
2023/11/10 12:46:32;;;;;;;3.27;3.07;;;10.20;99.90;;;;;;4971187;28;20732;-60
2023/11/10 12:48:59;;;;;;;2.67;2.47;;;10.20;99.90;;;;;;4969371;28;20242;-60
2023/11/10 12:51:29;;;;;;;2.60;2.50;;;10.20;99.90;;;;;;4971320;28;20252;-60
2023/11/10 12:54:04;;;;;;;3.30;2.80;;;10.20;99.90;;;;;;4970710;28;20199;-60
2023/11/10 12:56:35;;;;;;;2.67;2.57;;;10.10;99.90;;;;;;4964828;28;20222;-62
2023/11/10 12:59:04;;;;;;;1.00;0.20;;;10.10;99.90;;;;;;4972136;28;20211;-60
2023/11/10 13:01:31;;;;;;;0.10;0.10;;;10.00;99.90;;;;;;4971286;28;20230;-60